createdAt,value
2022-10-17T00:02:01.486Z,100.00
2022-10-17T00:04:28.007Z,100.00
2022-10-17T00:06:54.886Z,100.00
2022-10-17T00:09:21.420Z,100.00
2022-10-17T00:11:47.931Z,100.00
2022-10-17T00:14:14.447Z,100.00
2022-10-17T00:16:41.048Z,100.00
2022-10-17T00:19:07.895Z,100.00
2022-10-17T00:21:34.469Z,100.00
2022-10-17T00:24:01.550Z,100.00
2022-10-17T00:26:30.954Z,100.00
2022-10-17T00:28:57.563Z,100.00
2022-10-17T00:31:24.907Z,100.00
2022-10-17T00:33:52.346Z,100.00
2022-10-17T00:36:22.582Z,100.00
2022-10-17T00:38:55.620Z,100.00
2022-10-17T00:41:25.463Z,100.00
2022-10-17T00:43:58.044Z,100.00
2022-10-17T00:46:30.230Z,100.00
2022-10-17T00:48:58.832Z,100.00
2022-10-17T00:51:34.387Z,99.96
2022-10-17T00:54:02.897Z,100.00
2022-10-17T00:56:30.443Z,100.00
2022-10-17T00:58:57.262Z,100.00
2022-10-17T01:01:24.034Z,100.00
2022-10-17T01:03:50.709Z,100.00
2022-10-17T01:06:17.312Z,100.00
2022-10-17T01:08:43.969Z,100.00
2022-10-17T01:11:25.614Z,100.00
2022-10-17T01:13:59.137Z,100.00
2022-10-17T01:16:25.899Z,100.00
2022-10-17T01:19:01.681Z,100.00
2022-10-17T01:21:40.183Z,100.00
2022-10-17T01:24:37.740Z,100.00
2022-10-17T01:27:35.270Z,100.00
2022-10-17T01:30:01.688Z,100.00
2022-10-17T01:32:35.287Z,100.00
2022-10-17T01:35:10.608Z,100.00
2022-10-17T01:37:58.208Z,100.00
2022-10-17T01:40:27.501Z,100.00
2022-10-17T01:43:25.930Z,100.00
2022-10-17T01:46:00.376Z,100.00
2022-10-17T01:48:34.441Z,100.00
2022-10-17T01:51:11.419Z,100.00
2022-10-17T01:53:45.735Z,100.00
2022-10-17T01:56:14.625Z,99.50
2022-10-17T01:58:50.714Z,99.56
2022-10-17T02:01:18.942Z,99.59
2022-10-17T02:03:47.515Z,100.00
2022-10-17T02:06:13.970Z,100.00
2022-10-17T02:08:49.455Z,100.00
2022-10-17T02:11:23.677Z,100.00
2022-10-17T02:14:05.333Z,100.00
2022-10-17T02:17:04.265Z,100.00
2022-10-17T02:19:49.509Z,100.00
2022-10-17T02:22:28.488Z,100.00
2022-10-17T02:25:02.814Z,100.00
2022-10-17T02:27:43.890Z,100.00
2022-10-17T02:30:42.939Z,100.00
2022-10-17T02:33:14.037Z,100.00
2022-10-17T02:35:46.312Z,100.00
2022-10-17T02:38:14.377Z,100.00
2022-10-17T02:40:42.661Z,100.00
2022-10-17T02:43:09.301Z,100.00
2022-10-17T02:45:37.887Z,100.00
2022-10-17T02:48:23.916Z,100.00
2022-10-17T02:51:12.083Z,100.00
2022-10-17T02:53:55.585Z,100.00
2022-10-17T02:56:24.758Z,100.00
2022-10-17T02:58:55.957Z,100.00
2022-10-17T03:01:22.906Z,100.00
2022-10-17T03:03:49.408Z,100.00
2022-10-17T03:06:16.123Z,100.00
2022-10-17T03:08:42.634Z,100.00
2022-10-17T03:11:09.288Z,100.00
2022-10-17T03:13:38.963Z,100.00
2022-10-17T03:16:06.652Z,100.00
2022-10-17T03:18:33.126Z,100.00
2022-10-17T03:20:59.712Z,100.00
2022-10-17T03:23:26.182Z,100.00
2022-10-17T03:25:52.718Z,100.00
2022-10-17T03:28:19.192Z,100.00
2022-10-17T03:30:45.699Z,100.00
2022-10-17T03:33:12.244Z,100.00
2022-10-17T03:35:40.504Z,100.00
2022-10-17T03:38:07.203Z,100.00
2022-10-17T03:40:33.670Z,100.00
2022-10-17T03:43:00.118Z,100.00
2022-10-17T03:45:26.601Z,100.00
2022-10-17T03:47:53.109Z,100.00
2022-10-17T03:50:19.625Z,100.00
2022-10-17T03:52:48.426Z,100.00
2022-10-17T03:55:15.895Z,100.00
2022-10-17T03:57:44.794Z,100.00
2022-10-17T04:00:13.071Z,100.00
2022-10-17T04:02:39.737Z,100.00
2022-10-17T04:05:06.875Z,100.00
2022-10-17T04:07:33.401Z,100.00
2022-10-17T04:09:59.870Z,100.00
2022-10-17T04:12:26.426Z,100.00
2022-10-17T04:14:53.226Z,100.00
2022-10-17T04:17:19.715Z,100.00
2022-10-17T04:19:46.230Z,100.00
2022-10-17T04:22:12.708Z,100.00
2022-10-17T04:24:39.155Z,100.00
2022-10-17T04:27:05.611Z,100.00
2022-10-17T04:29:32.159Z,100.00
2022-10-17T04:31:58.750Z,100.00
2022-10-17T04:34:25.204Z,100.00
2022-10-17T04:36:52.011Z,100.00
2022-10-17T04:39:18.709Z,100.00
2022-10-17T04:41:45.207Z,100.00
2022-10-17T04:44:12.181Z,100.00
2022-10-17T04:46:38.728Z,100.00
2022-10-17T04:49:05.210Z,100.00
2022-10-17T04:51:32.127Z,100.00
2022-10-17T04:53:58.620Z,100.00
2022-10-17T04:56:25.759Z,100.00
2022-10-17T04:58:52.604Z,100.00
2022-10-17T05:01:22.027Z,100.00
2022-10-17T05:03:49.036Z,100.00
2022-10-17T05:06:21.916Z,100.00
2022-10-17T05:08:48.982Z,100.00
2022-10-17T05:11:24.120Z,100.00
2022-10-17T05:13:56.345Z,100.00
2022-10-17T05:16:23.807Z,100.00
2022-10-17T05:18:53.064Z,100.00
2022-10-17T05:21:20.428Z,100.00
2022-10-17T05:23:47.060Z,100.00
2022-10-17T05:26:14.223Z,100.00
2022-10-17T05:28:41.266Z,100.00
2022-10-17T05:31:10.164Z,100.00
2022-10-17T05:33:37.473Z,100.00
2022-10-17T05:36:04.779Z,100.00
2022-10-17T05:38:31.264Z,100.00
2022-10-17T05:41:03.213Z,100.00
2022-10-17T05:43:30.118Z,100.00
2022-10-17T05:45:57.321Z,100.00
2022-10-17T05:48:24.112Z,100.00
2022-10-17T05:50:57.111Z,100.00
2022-10-17T05:53:23.603Z,100.00
2022-10-17T05:55:57.790Z,100.00
2022-10-17T05:58:45.605Z,100.00
2022-10-17T06:01:12.875Z,100.00
2022-10-17T06:03:39.697Z,100.00
2022-10-17T06:06:12.229Z,99.74
2022-10-17T06:08:39.260Z,99.38
2022-10-17T06:11:09.257Z,99.34
2022-10-17T06:13:37.841Z,99.45
2022-10-17T06:16:04.593Z,99.37
2022-10-17T06:18:31.099Z,98.84
2022-10-17T06:21:05.443Z,99.61
2022-10-17T06:23:32.551Z,99.45
2022-10-17T06:26:04.203Z,99.40
2022-10-17T06:28:30.974Z,99.24
2022-10-17T06:30:57.687Z,99.18
2022-10-17T06:33:24.329Z,99.24
2022-10-17T06:35:54.979Z,100.00
2022-10-17T06:38:22.015Z,100.00
2022-10-17T06:40:48.727Z,100.00
2022-10-17T06:43:15.458Z,100.00
2022-10-17T06:45:42.040Z,99.89
2022-10-17T06:48:08.856Z,99.60
2022-10-17T06:50:35.502Z,99.96
2022-10-17T06:53:02.142Z,100.00
2022-10-17T06:55:28.814Z,100.00
2022-10-17T06:57:56.475Z,100.00
2022-10-17T07:00:23.607Z,100.00
2022-10-17T07:02:50.272Z,99.93
2022-10-17T07:05:17.378Z,100.00
2022-10-17T07:07:45.515Z,100.00
2022-10-17T07:10:13.966Z,100.00
2022-10-17T07:12:40.517Z,100.00
2022-10-17T07:15:07.472Z,100.00
2022-10-17T07:17:34.150Z,100.00
2022-10-17T07:20:00.813Z,100.00
2022-10-17T07:22:27.517Z,100.00
2022-10-17T07:24:54.012Z,100.00
2022-10-17T07:27:20.957Z,100.00
2022-10-17T07:29:47.602Z,100.00
2022-10-17T07:32:14.133Z,100.00
2022-10-17T07:34:40.914Z,100.00
2022-10-17T07:37:07.559Z,100.00
2022-10-17T07:39:35.692Z,100.00
2022-10-17T07:42:02.337Z,100.00
2022-10-17T07:44:29.154Z,100.00
2022-10-17T07:46:55.771Z,100.00
2022-10-17T07:49:22.264Z,99.51
2022-10-17T07:51:49.557Z,99.73
2022-10-17T07:54:18.220Z,97.18
2022-10-17T07:56:50.292Z,95.45
2022-10-17T07:59:18.619Z,94.85
2022-10-17T08:01:45.238Z,93.59
2022-10-17T08:04:11.839Z,92.45
2022-10-17T08:06:38.579Z,90.58
2022-10-17T08:09:05.241Z,87.88
2022-10-17T08:11:31.872Z,86.74
2022-10-17T08:13:58.367Z,85.62
2022-10-17T08:16:24.919Z,85.80
2022-10-17T08:18:51.580Z,84.96
2022-10-17T08:21:18.127Z,84.26
2022-10-17T08:23:44.593Z,83.19
2022-10-17T08:26:13.525Z,80.99
2022-10-17T08:28:40.626Z,79.91
2022-10-17T08:31:10.104Z,78.54
2022-10-17T08:33:36.688Z,78.52
2022-10-17T08:36:05.568Z,78.00
2022-10-17T08:38:35.598Z,77.18
2022-10-17T08:41:24.532Z,75.67
2022-10-17T08:44:17.403Z,75.41
2022-10-17T08:46:48.056Z,74.13
2022-10-17T08:49:25.528Z,73.02
2022-10-17T08:51:58.954Z,73.63
2022-10-17T08:54:41.260Z,74.72
2022-10-17T08:57:13.330Z,75.57
2022-10-17T08:59:40.002Z,76.30
2022-10-17T09:02:27.282Z,75.09
2022-10-17T09:05:22.438Z,75.11
2022-10-17T09:08:09.183Z,71.07
2022-10-17T09:10:56.962Z,68.57
2022-10-17T09:13:32.553Z,67.53
2022-10-17T09:16:21.349Z,67.51
2022-10-17T09:19:01.172Z,66.29
2022-10-17T09:21:39.599Z,66.05
2022-10-17T09:24:16.282Z,65.42
2022-10-17T09:26:45.456Z,65.16
2022-10-17T09:29:20.108Z,63.73
2022-10-17T09:34:31.578Z,63.91
2022-10-17T09:37:00.992Z,63.71
2022-10-17T09:39:33.036Z,63.69
2022-10-17T09:42:01.559Z,64.39
2022-10-17T09:44:33.085Z,63.94
2022-10-17T09:47:20.512Z,63.19
2022-10-17T09:49:48.502Z,64.18
2022-10-17T09:52:27.914Z,62.51
2022-10-17T09:54:57.492Z,63.89
2022-10-17T09:57:24.299Z,62.39
2022-10-17T10:00:00.107Z,62.62
2022-10-17T10:02:29.664Z,61.88
2022-10-17T10:05:07.108Z,61.82
2022-10-17T10:07:37.355Z,61.44
2022-10-17T10:10:07.167Z,60.13
2022-10-17T10:12:37.464Z,59.56
2022-10-17T10:15:32.766Z,61.08
2022-10-17T10:17:59.388Z,58.63
2022-10-17T10:20:36.911Z,59.21
2022-10-17T10:23:18.335Z,59.05
2022-10-17T10:25:59.265Z,59.79
2022-10-17T10:28:32.093Z,59.65
2022-10-17T10:31:04.740Z,60.17
2022-10-17T10:33:33.720Z,60.35
2022-10-17T10:36:09.890Z,60.59
2022-10-17T10:38:40.950Z,60.92
2022-10-17T10:41:09.781Z,61.21
2022-10-17T10:43:42.317Z,61.44
2022-10-17T10:46:27.409Z,60.49
2022-10-17T10:49:01.659Z,60.97
2022-10-17T10:51:41.383Z,61.01
2022-10-17T10:54:23.514Z,57.43
2022-10-17T10:56:54.214Z,58.69
2022-10-17T10:59:39.692Z,58.40
2022-10-17T11:02:24.850Z,58.50
2022-10-17T11:04:58.266Z,59.24
2022-10-17T11:07:36.230Z,58.91
2022-10-17T11:10:44.477Z,59.36
2022-10-17T11:13:16.974Z,59.36
2022-10-17T11:15:53.786Z,59.34
2022-10-17T11:18:55.089Z,60.21
2022-10-17T11:22:03.725Z,60.48
2022-10-17T11:24:38.918Z,58.96
2022-10-17T11:27:07.237Z,59.76
2022-10-17T11:29:39.602Z,58.34
2022-10-17T11:32:21.754Z,57.58
2022-10-17T11:34:53.669Z,56.28
2022-10-17T11:37:29.194Z,56.44
2022-10-17T11:40:33.728Z,57.24
2022-10-17T11:43:24.440Z,56.43
2022-10-17T11:45:57.054Z,57.13
2022-10-17T11:48:34.193Z,57.09
2022-10-17T11:54:34.067Z,56.34
2022-10-17T11:57:28.346Z,55.86
2022-10-17T12:00:18.578Z,56.63
2022-10-17T12:02:53.436Z,55.35
2022-10-17T12:05:57.481Z,54.90
2022-10-17T12:08:25.252Z,55.70
2022-10-17T12:11:01.139Z,55.05
2022-10-17T12:13:28.144Z,54.99
2022-10-17T12:15:56.018Z,55.20
2022-10-17T12:18:28.120Z,54.33
2022-10-17T12:21:00.078Z,55.34
2022-10-17T12:23:32.119Z,53.76
2022-10-17T12:26:05.123Z,53.98
2022-10-17T12:28:37.696Z,54.49
2022-10-17T12:31:10.166Z,54.59
2022-10-17T12:33:39.515Z,54.77
2022-10-17T12:36:18.646Z,54.27
2022-10-17T12:38:50.942Z,54.47
2022-10-17T12:41:40.227Z,55.06
2022-10-17T12:44:12.807Z,55.23
2022-10-17T12:46:44.328Z,54.76
2022-10-17T12:49:48.058Z,55.00
2022-10-17T12:52:22.127Z,54.31
2022-10-17T12:55:13.008Z,54.49
2022-10-17T12:57:56.827Z,55.02
2022-10-17T13:00:37.318Z,55.55
2022-10-17T13:03:11.801Z,55.96
2022-10-17T13:05:42.501Z,56.66
2022-10-17T13:08:21.071Z,56.50
2022-10-17T13:10:52.434Z,56.56
2022-10-17T13:13:23.799Z,56.18
2022-10-17T13:15:53.000Z,56.78
2022-10-17T13:18:25.738Z,55.69
2022-10-17T13:21:07.089Z,56.92
2022-10-17T13:23:37.836Z,57.30
2022-10-17T13:26:07.411Z,57.18
2022-10-17T13:28:38.506Z,57.09
2022-10-17T13:31:06.528Z,58.03
2022-10-17T13:33:37.895Z,56.49
2022-10-17T13:36:08.296Z,56.96
2022-10-17T13:38:38.951Z,57.64
2022-10-17T13:41:34.948Z,58.08
2022-10-17T13:44:03.655Z,58.25
2022-10-17T13:46:38.339Z,58.56
2022-10-17T13:49:15.474Z,59.34
2022-10-17T13:51:47.943Z,59.43
2022-10-17T13:54:43.339Z,59.54
2022-10-17T13:57:17.804Z,59.64
2022-10-17T13:59:47.944Z,59.81
2022-10-17T14:02:20.890Z,60.71
2022-10-17T14:10:38.939Z,61.17
2022-10-17T14:13:08.334Z,61.48
2022-10-17T14:15:36.791Z,61.78
2022-10-17T14:18:07.976Z,61.50
2022-10-17T14:23:38.143Z,61.24
2022-10-17T14:26:19.852Z,61.86
2022-10-17T14:28:49.641Z,61.37
2022-10-17T14:31:25.696Z,61.42
2022-10-17T14:33:54.031Z,60.94
2022-10-17T14:36:30.620Z,59.90
2022-10-17T14:38:57.375Z,61.79
2022-10-17T14:41:43.714Z,61.88
2022-10-17T14:44:32.182Z,62.02
2022-10-17T14:47:18.338Z,61.77
2022-10-17T14:49:51.327Z,62.69
2022-10-17T14:52:18.843Z,62.74
2022-10-17T14:54:48.046Z,62.84
2022-10-17T14:57:27.508Z,63.58
2022-10-17T14:59:56.305Z,63.37
2022-10-17T15:02:27.506Z,64.44
2022-10-17T15:04:54.947Z,63.22
2022-10-17T15:07:22.200Z,64.68
2022-10-17T15:09:50.628Z,65.02
2022-10-17T15:12:22.483Z,63.88
2022-10-17T15:14:50.698Z,62.92
2022-10-17T15:17:20.979Z,63.34
2022-10-17T15:19:48.494Z,62.71
2022-10-17T15:22:16.407Z,62.10
2022-10-17T15:24:43.150Z,63.27
2022-10-17T15:27:29.604Z,63.43
2022-10-17T15:29:56.374Z,62.75
2022-10-17T15:32:22.832Z,64.21
2022-10-17T15:34:49.479Z,63.78
2022-10-17T15:37:25.148Z,63.84
2022-10-17T15:39:54.578Z,63.62
2022-10-17T15:42:23.013Z,64.42
2022-10-17T15:44:50.424Z,64.58
2022-10-17T15:47:31.247Z,64.50
2022-10-17T15:49:58.605Z,64.97
2022-10-17T15:52:25.798Z,64.47
2022-10-17T15:54:53.355Z,65.68
2022-10-17T15:57:26.271Z,65.99
2022-10-17T15:59:54.374Z,66.43
2022-10-17T16:02:22.642Z,66.19
2022-10-17T16:04:50.624Z,66.98
2022-10-17T16:07:19.102Z,67.71
2022-10-17T16:09:45.963Z,68.26
2022-10-17T16:12:19.058Z,68.66
2022-10-17T16:14:45.636Z,67.99
2022-10-17T16:17:16.438Z,68.17
2022-10-17T16:19:43.595Z,68.61
2022-10-17T16:22:20.838Z,68.24
2022-10-17T16:24:47.415Z,68.82
2022-10-17T16:27:14.072Z,69.01
2022-10-17T16:29:40.589Z,68.80
2022-10-17T16:32:07.141Z,68.94
2022-10-17T16:34:33.716Z,69.81
2022-10-17T16:37:00.339Z,70.12
2022-10-17T16:41:57.678Z,70.49
2022-10-17T16:44:25.273Z,70.67
2022-10-17T16:46:51.807Z,71.19
2022-10-17T16:49:18.336Z,71.64
2022-10-17T16:51:44.961Z,72.24
2022-10-17T16:54:11.463Z,73.31
2022-10-17T16:56:38.013Z,73.99
2022-10-17T16:59:04.594Z,73.48
2022-10-17T17:01:31.116Z,74.36
2022-10-17T17:03:57.701Z,74.85
2022-10-17T17:06:27.521Z,75.54
2022-10-17T17:08:55.466Z,75.10
2022-10-17T17:11:24.605Z,75.72
2022-10-17T17:13:51.883Z,76.17
2022-10-17T17:16:23.765Z,76.51
2022-10-17T17:18:55.479Z,76.67
2022-10-17T17:21:22.482Z,76.92
2022-10-17T17:23:49.333Z,78.08
2022-10-17T17:26:18.971Z,78.50
2022-10-17T17:28:46.488Z,79.21
2022-10-17T17:31:16.636Z,79.51
2022-10-17T17:33:44.057Z,79.68
2022-10-17T17:36:13.813Z,79.78
2022-10-17T17:38:41.382Z,79.48
2022-10-17T17:41:07.971Z,80.22
2022-10-17T17:43:35.796Z,80.27
2022-10-17T17:46:02.645Z,80.88
2022-10-17T17:48:29.229Z,80.65
2022-10-17T17:50:55.860Z,81.42
2022-10-17T17:53:22.606Z,81.59
2022-10-17T17:56:00.224Z,81.85
2022-10-17T17:58:26.713Z,82.46
2022-10-17T18:00:53.308Z,82.98
2022-10-17T18:03:19.904Z,82.51
2022-10-17T18:05:46.468Z,83.42
2022-10-17T18:08:13.028Z,83.29
2022-10-17T18:10:39.566Z,83.72
2022-10-17T18:13:06.116Z,83.63
2022-10-17T18:15:32.747Z,84.42
2022-10-17T18:18:00.106Z,84.60
2022-10-17T18:20:27.748Z,84.77
2022-10-17T18:22:54.205Z,85.37
2022-10-17T18:25:20.714Z,85.75
2022-10-17T18:27:48.057Z,85.93
2022-10-17T18:30:14.830Z,85.59
2022-10-17T18:32:41.307Z,86.60
2022-10-17T18:35:08.156Z,86.82
2022-10-17T18:37:34.734Z,87.33
2022-10-17T18:40:03.085Z,87.41
2022-10-17T18:42:30.080Z,88.25
2022-10-17T18:44:56.876Z,87.84
2022-10-17T18:47:23.368Z,88.09
2022-10-17T18:49:49.993Z,89.13
2022-10-17T18:52:16.563Z,88.67
2022-10-17T18:54:43.068Z,88.83
2022-10-17T18:57:09.567Z,88.92
2022-10-17T18:59:37.023Z,90.05
2022-10-17T19:02:03.613Z,90.31
2022-10-17T19:04:30.094Z,91.34
2022-10-17T19:06:56.622Z,91.70
2022-10-17T19:09:23.119Z,92.01
2022-10-17T19:11:49.634Z,92.68
2022-10-17T19:14:16.232Z,92.99
2022-10-17T19:16:48.181Z,93.63
2022-10-17T19:19:17.990Z,93.53
2022-10-17T19:21:45.155Z,93.83
2022-10-17T19:24:15.970Z,94.46
2022-10-17T19:26:43.923Z,94.51
2022-10-17T19:29:13.913Z,94.09
2022-10-17T19:31:40.967Z,94.18
2022-10-17T19:34:07.570Z,94.60
2022-10-17T19:36:35.313Z,94.82
2022-10-17T19:39:05.708Z,95.01
2022-10-17T19:41:32.843Z,95.44
2022-10-17T19:44:00.043Z,95.59
2022-10-17T19:46:27.931Z,95.43
2022-10-17T19:48:54.461Z,96.12
2022-10-17T19:51:24.594Z,96.75
2022-10-17T19:53:52.352Z,97.34
2022-10-17T19:56:21.086Z,96.92
2022-10-17T19:58:49.085Z,97.35
2022-10-17T20:01:18.299Z,97.39
2022-10-17T20:03:45.069Z,97.89
2022-10-17T20:06:12.402Z,97.99
2022-10-17T20:08:40.208Z,98.99
2022-10-17T20:11:09.427Z,98.88
2022-10-17T20:13:36.776Z,99.54
2022-10-17T20:16:04.026Z,100.00
2022-10-17T20:18:30.895Z,100.00
2022-10-17T20:21:03.651Z,99.82
2022-10-17T20:23:30.169Z,99.17
2022-10-17T20:26:13.566Z,99.66
2022-10-17T20:28:48.863Z,100.00
2022-10-17T20:31:16.172Z,100.00
2022-10-17T20:33:42.715Z,100.00
2022-10-17T20:36:11.795Z,100.00
2022-10-17T20:38:38.290Z,100.00
2022-10-17T20:41:06.922Z,100.00
2022-10-17T20:43:34.979Z,100.00
2022-10-17T20:46:09.685Z,100.00
2022-10-17T20:48:42.373Z,100.00
2022-10-17T20:51:10.691Z,100.00
2022-10-17T20:53:37.929Z,100.00
2022-10-17T20:56:08.206Z,100.00
2022-10-17T20:58:35.211Z,100.00
2022-10-17T21:01:20.611Z,100.00
2022-10-17T21:03:47.448Z,100.00
2022-10-17T21:06:14.775Z,100.00
2022-10-17T21:08:41.581Z,100.00
2022-10-17T21:11:09.227Z,100.00
2022-10-17T21:13:35.762Z,100.00
2022-10-17T21:16:14.561Z,100.00
2022-10-17T21:18:41.921Z,100.00
2022-10-17T21:21:26.777Z,100.00
2022-10-17T21:23:56.165Z,100.00
2022-10-17T21:26:22.675Z,100.00
2022-10-17T21:28:50.232Z,100.00
2022-10-17T21:31:19.451Z,100.00
2022-10-17T21:33:48.659Z,100.00
2022-10-17T21:36:17.163Z,100.00
2022-10-17T21:38:48.594Z,100.00
2022-10-17T21:41:16.704Z,100.00
2022-10-17T21:43:43.614Z,100.00
2022-10-17T21:46:12.528Z,100.00
2022-10-17T21:48:39.392Z,100.00
2022-10-17T21:51:10.721Z,100.00
2022-10-17T21:53:37.525Z,100.00
2022-10-17T21:56:06.944Z,100.00
2022-10-17T21:58:34.026Z,100.00
2022-10-17T22:01:16.766Z,100.00
2022-10-17T22:03:48.274Z,100.00
2022-10-17T22:09:05.529Z,100.00
2022-10-17T22:11:35.195Z,100.00
2022-10-17T22:14:07.254Z,100.00
2022-10-17T22:16:34.723Z,100.00
2022-10-17T22:19:05.943Z,100.00
2022-10-17T22:21:34.726Z,100.00
2022-10-17T22:24:03.877Z,100.00
2022-10-17T22:26:32.772Z,100.00
2022-10-17T22:28:59.663Z,100.00
2022-10-17T22:31:26.631Z,100.00
2022-10-17T22:33:53.414Z,100.00
2022-10-17T22:36:20.215Z,100.00
2022-10-17T22:38:46.767Z,100.00
2022-10-17T22:41:13.306Z,100.00
2022-10-17T22:43:39.853Z,100.00
2022-10-17T22:46:07.454Z,100.00
2022-10-17T22:48:34.411Z,100.00
2022-10-17T22:51:01.350Z,100.00
2022-10-17T22:53:29.581Z,100.00
2022-10-17T22:55:58.554Z,100.00
2022-10-17T22:58:25.589Z,100.00
2022-10-17T23:00:53.315Z,100.00
2022-10-17T23:03:21.435Z,100.00
2022-10-17T23:05:48.346Z,100.00
2022-10-17T23:08:15.502Z,100.00
2022-10-17T23:10:42.202Z,100.00
2022-10-17T23:13:08.677Z,100.00
2022-10-17T23:15:35.364Z,100.00
2022-10-17T23:18:02.510Z,100.00
2022-10-17T23:20:30.398Z,100.00
2022-10-17T23:22:58.161Z,100.00
2022-10-17T23:25:25.476Z,100.00
2022-10-17T23:27:51.950Z,100.00
2022-10-17T23:30:18.633Z,100.00
2022-10-17T23:32:45.346Z,100.00
2022-10-17T23:35:12.461Z,100.00
2022-10-17T23:37:38.915Z,100.00
2022-10-17T23:40:06.580Z,100.00
2022-10-17T23:42:33.141Z,100.00
2022-10-17T23:44:59.636Z,100.00
2022-10-17T23:47:26.106Z,100.00
2022-10-17T23:49:52.651Z,100.00
2022-10-17T23:52:19.127Z,100.00
2022-10-17T23:54:45.690Z,100.00
2022-10-17T23:57:12.218Z,100.00
2022-10-17T23:59:38.739Z,100.00
